Ana Sayfa
METAR-TAF:

METAR-TAF

Havaalanları :

Kingston, Ontario, Kanada

Enlem: 44-13N, Boylam: 076-36W, yükseklik: 93 m

Güncel hava durumu gözlemi

Rapor saat 21:00 UTC de 50 dakika önce yapıldı.
Rüzgar batı/güneybatıdan 6 kt
Sıcaklık 5°C
Nem 70%
Basınç 1013 hPa
Görüş mesafesi: 24.1 km
20000 ft yükseklikte çok bulutlu

METAR: CYGK 242100Z 24006KT 15SM OVC200 05/00 A2990 RMK CS7 SLP129

Saat: 16:50 (21:50 UTC)

Tahmin

Rapor saat 19:38 UTC de 2 saat ve 12 dakika önce yapıldı.
Ayın 24'si saat 20 UTC'den ayın 25'si saat 04 UTC'ye kadar geçerli Tahmin
Rüzgar güneydan 8 kt
Görüş mesafesi: 10 km
20000 ft yükseklikte çok bulutlu
Dönüşüyor
ayın 25'si saat 00 UTC'den ayın 25'si saat 02 UTC'ye kadar
Rüzgar değişken yönden 3 kt

TAF: CYGK 241938Z 2420/2504 18008KT P6SM OVC200 BECMG 2500/2502 VRB03KT RMK NXT FCST BY 250200Z

4.000'den fazla havaalanı için hava durumu gözlemleri ve tahminleri (METAR ve TAF raporları).

Kullanılabilir istasyonlar harita üzerinde sarı ve kırmızı noktalarla gösterilir.

İstasyonun adını görmek için fareyi noktanın üzerinde gezdirin.

Sonrasında hava gözlem ve tahminlerini görmek için tıklayın.

Haritayı değiştirmek için: yaklaştırmak için siyah artı işaretli yeşil düğmeye ve uzaklaştırmak için de eksi işaretli düğmeye hızla tıklayın; bitişik haritalar için yeşil okları kullanın.


METAR-TAF: